Terminal Aerodrome Forecast
Issued by NWS

Home | Current Version | Previous Version | Graphics & Text | Print | Product List | Glossary On
Versions: 1 2 3 4 5 6 7 8 9 10 11 12 13 14 15 16 17 18
000
FTUS43 KTOP 192300
TAFFOE
TAF
KFOE 192320Z 2000/2024 16005KT P6SM SKC
     FM200500 19007KT P6SM SCT300 WS008/22035KT
     FM201400 19012KT P6SM SCT300
     FM201700 20015G21KT P6SM SCT050=

USA.gov is the U.S. government's official web portal to all federal, state and local government web resources and services.